Time;durP1;ratioP1;P1;durP2;ratioP2;P2;SDS_P1;SDS_P2;PMS_P1;PMS_P2;Temp;Humidity;BMP_temperature;BMP_pressure;BME280_temperature;BME280_humidity;BME280_pressure;Samples;Min_cycle;Max_cycle;Signal;HPM_P1;HPM_P2
2023/04/21 00:01:58;;;;;;;1.10;1.00;;;;;;;;;;5025245;28;58837;-63
2023/04/21 00:04:23;;;;;;;1.37;1.27;;;;;;;;;;5024705;28;58798;-64
2023/04/21 00:06:49;;;;;;;1.10;1.00;;;;;;;;;;5024997;28;58520;-64
2023/04/21 00:09:14;;;;;;;1.67;1.27;;;;;;;;;;5024616;28;58614;-65
2023/04/21 00:11:39;;;;;;;1.27;1.17;;;;;;;;;;5024049;28;59765;-64
2023/04/21 00:14:04;;;;;;;0.90;0.90;;;;;;;;;;5024969;28;58701;-64
2023/04/21 00:16:30;;;;;;;1.50;1.40;;;;;;;;;;5023773;28;58614;-64
2023/04/21 00:18:55;;;;;;;1.42;1.33;;;;;;;;;;5027907;28;58123;-64
2023/04/21 00:21:20;;;;;;;1.20;1.10;;;;;;;;;;5026055;28;59007;-64
2023/04/21 00:23:46;;;;;;;2.40;1.63;;;;;;;;;;5025420;28;58663;-64
2023/04/21 00:26:11;;;;;;;1.83;1.67;;;;;;;;;;5024638;28;58594;-65
2023/04/21 00:28:36;;;;;;;1.47;1.37;;;;;;;;;;5024628;28;59240;-64
2023/04/21 00:31:01;;;;;;;1.25;1.15;;;;;;;;;;5025201;28;58527;-64
2023/04/21 00:33:26;;;;;;;1.50;1.03;;;;;;;;;;5026912;28;58436;-64
2023/04/21 00:35:53;;;;;;;1.92;1.20;;;;;;;;;;5023919;28;58833;-64
2023/04/21 00:38:18;;;;;;;1.52;1.42;;;;;;;;;;5025612;28;58498;-64
2023/04/21 00:40:43;;;;;;;1.30;1.20;;;;;;;;;;5025534;28;59020;-64
2023/04/21 00:43:08;;;;;;;1.50;1.40;;;;;;;;;;5025114;28;58332;-63
2023/04/21 00:45:34;;;;;;;1.58;1.48;;;;;;;;;;5025531;28;58593;-64
2023/04/21 00:47:59;;;;;;;1.30;1.20;;;;;;;;;;5025732;28;59093;-63
2023/04/21 00:50:25;;;;;;;1.47;1.37;;;;;;;;;;5024453;28;58469;-64
2023/04/21 00:52:50;;;;;;;1.53;1.43;;;;;;;;;;5025520;28;58059;-64
2023/04/21 00:55:15;;;;;;;1.23;1.13;;;;;;;;;;5024890;28;58476;-63
2023/04/21 00:57:40;;;;;;;1.20;1.10;;;;;;;;;;5026565;28;58789;-62
2023/04/21 01:00:07;;;;;;;1.10;1.03;;;;;;;;;;5025591;28;58992;-64
2023/04/21 01:02:34;;;;;;;1.27;0.93;;;;;;;;;;5022351;28;59374;-64
2023/04/21 01:04:59;;;;;;;1.23;1.23;;;;;;;;;;5024746;28;58509;-65
2023/04/21 01:07:24;;;;;;;1.40;1.30;;;;;;;;;;5026965;28;58347;-65
2023/04/21 01:09:49;;;;;;;1.40;1.30;;;;;;;;;;5023157;28;58892;-65
2023/04/21 01:12:14;;;;;;;1.43;1.33;;;;;;;;;;5024544;28;58554;-66
2023/04/21 01:14:40;;;;;;;1.65;1.55;;;;;;;;;;5024365;28;58992;-63
2023/04/21 01:17:06;;;;;;;1.57;1.10;;;;;;;;;;5025340;28;58511;-66
2023/04/21 01:19:33;;;;;;;1.63;1.40;;;;;;;;;;5024688;28;58976;-65
2023/04/21 01:21:59;;;;;;;1.00;0.90;;;;;;;;;;5025305;28;58557;-65
2023/04/21 01:24:34;;;;;;;1.42;1.33;;;;;;;;;;5040409;28;58602;-65
2023/04/21 01:27:00;;;;;;;1.05;1.00;;;;;;;;;;5025124;28;58007;-65
2023/04/21 01:29:25;;;;;;;1.85;1.42;;;;;;;;;;5021680;28;58737;-65
2023/04/21 01:31:50;;;;;;;0.90;0.90;;;;;;;;;;5024290;28;58680;-65
2023/04/21 01:34:15;;;;;;;1.02;1.00;;;;;;;;;;5022632;28;58336;-66
2023/04/21 01:36:41;;;;;;;1.70;1.60;;;;;;;;;;5024337;28;58490;-65
2023/04/21 01:39:06;;;;;;;1.20;1.10;;;;;;;;;;5028086;28;58582;-65
2023/04/21 01:41:31;;;;;;;1.07;1.03;;;;;;;;;;5028877;28;58450;-65
2023/04/21 01:43:56;;;;;;;1.20;1.10;;;;;;;;;;5028598;28;57862;-65
2023/04/21 01:46:21;;;;;;;1.77;1.67;;;;;;;;;;5028348;28;58367;-65
2023/04/21 01:48:46;;;;;;;1.20;1.10;;;;;;;;;;5027255;28;58707;-64
2023/04/21 01:51:11;;;;;;;2.08;1.60;;;;;;;;;;5029021;28;58348;-65
2023/04/21 01:53:37;;;;;;;1.10;1.08;;;;;;;;;;5029123;28;58384;-64
2023/04/21 01:56:02;;;;;;;1.13;1.03;;;;;;;;;;5027120;28;58647;-62
2023/04/21 01:58:27;;;;;;;1.33;1.23;;;;;;;;;;5028829;28;58321;-66
2023/04/21 02:00:52;;;;;;;1.53;1.43;;;;;;;;;;5027299;28;58351;-66
2023/04/21 02:03:17;;;;;;;1.40;1.30;;;;;;;;;;5026600;28;58747;-64
2023/04/21 02:05:43;;;;;;;1.33;1.23;;;;;;;;;;5026605;28;59021;-65
2023/04/21 02:08:08;;;;;;;1.63;1.27;;;;;;;;;;5027896;28;58607;-64
2023/04/21 02:10:33;;;;;;;1.25;1.15;;;;;;;;;;5026112;28;58738;-68
2023/04/21 02:12:59;;;;;;;1.10;1.10;;;;;;;;;;5025883;28;58804;-65
2023/04/21 02:15:25;;;;;;;1.52;1.42;;;;;;;;;;5025582;28;58615;-66
2023/04/21 02:17:50;;;;;;;2.00;1.20;;;;;;;;;;5028096;28;58627;-65
2023/04/21 02:20:15;;;;;;;1.43;1.33;;;;;;;;;;5027704;28;59305;-65
2023/04/21 02:22:40;;;;;;;1.40;1.30;;;;;;;;;;5024818;28;58510;-65
2023/04/21 02:25:05;;;;;;;1.53;1.17;;;;;;;;;;5026270;28;58975;-66
2023/04/21 02:27:31;;;;;;;1.37;1.27;;;;;;;;;;5006839;28;58782;-65
2023/04/21 02:29:56;;;;;;;1.47;1.37;;;;;;;;;;5004589;28;57863;-65
2023/04/21 02:32:21;;;;;;;1.33;1.10;;;;;;;;;;5005375;28;59145;-64
2023/04/21 02:34:46;;;;;;;1.30;1.20;;;;;;;;;;5007334;28;58547;-65
2023/04/21 02:37:11;;;;;;;1.73;1.63;;;;;;;;;;5001538;28;58410;-63
2023/04/21 02:39:36;;;;;;;1.10;1.00;;;;;;;;;;5008243;28;58486;-63
2023/04/21 02:42:01;;;;;;;1.92;1.40;;;;;;;;;;5006395;28;58339;-64
2023/04/21 02:44:27;;;;;;;1.20;1.10;;;;;;;;;;5019023;28;58467;-64
2023/04/21 02:46:52;;;;;;;2.05;1.48;;;;;;;;;;5028554;28;57855;-64
2023/04/21 02:49:17;;;;;;;2.08;1.50;;;;;;;;;;5027406;28;58392;-65
2023/04/21 02:51:42;;;;;;;1.67;1.57;;;;;;;;;;5026290;28;60010;-65
2023/04/21 02:54:07;;;;;;;1.50;1.40;;;;;;;;;;5027794;28;58845;-66
2023/04/21 02:56:33;;;;;;;1.38;1.27;;;;;;;;;;5026330;28;58642;-65
2023/04/21 02:58:58;;;;;;;1.65;1.55;;;;;;;;;;5027503;28;58566;-65
2023/04/21 03:01:23;;;;;;;1.27;1.17;;;;;;;;;;5028098;28;58876;-66
2023/04/21 03:03:48;;;;;;;1.30;1.20;;;;;;;;;;5028700;28;58478;-66
2023/04/21 03:06:14;;;;;;;3.27;2.10;;;;;;;;;;5026315;28;58494;-65
2023/04/21 03:08:39;;;;;;;1.40;1.30;;;;;;;;;;5026638;28;58862;-65
2023/04/21 03:11:04;;;;;;;1.38;1.27;;;;;;;;;;5026208;28;58678;-65
2023/04/21 03:13:29;;;;;;;1.30;1.20;;;;;;;;;;5025663;28;59383;-65
2023/04/21 03:15:54;;;;;;;1.70;1.60;;;;;;;;;;5025364;28;58936;-65
2023/04/21 03:18:19;;;;;;;1.45;1.35;;;;;;;;;;5026069;28;58412;-66
2023/04/21 03:20:44;;;;;;;1.30;1.20;;;;;;;;;;5026627;28;59293;-63
2023/04/21 03:23:10;;;;;;;1.10;1.10;;;;;;;;;;5026567;28;58641;-63
2023/04/21 03:25:36;;;;;;;1.40;1.30;;;;;;;;;;5026143;28;58459;-66
2023/04/21 03:28:02;;;;;;;1.10;1.00;;;;;;;;;;5024321;28;58458;-66
2023/04/21 03:30:27;;;;;;;1.50;1.30;;;;;;;;;;5025433;28;59459;-63
2023/04/21 03:32:54;;;;;;;1.10;1.10;;;;;;;;;;5025258;28;58221;-62
2023/04/21 03:35:19;;;;;;;1.40;1.30;;;;;;;;;;5027047;28;58736;-64
2023/04/21 03:37:44;;;;;;;1.48;1.38;;;;;;;;;;5025306;28;58415;-65
2023/04/21 03:40:09;;;;;;;1.70;1.60;;;;;;;;;;5025677;28;58819;-64
2023/04/21 03:42:35;;;;;;;1.47;1.20;;;;;;;;;;5026926;28;58415;-65
2023/04/21 03:45:01;;;;;;;2.17;1.30;;;;;;;;;;5026597;28;59162;-64
2023/04/21 03:47:26;;;;;;;1.38;1.27;;;;;;;;;;5025960;28;58951;-62
2023/04/21 03:49:51;;;;;;;1.48;1.20;;;;;;;;;;5028487;28;58448;-64
2023/04/21 03:52:16;;;;;;;1.63;1.17;;;;;;;;;;5025571;28;58431;-64
2023/04/21 03:54:41;;;;;;;1.25;1.17;;;;;;;;;;5027620;28;58819;-65
2023/04/21 03:57:06;;;;;;;1.33;1.23;;;;;;;;;;5025349;28;58569;-62
2023/04/21 03:59:31;;;;;;;1.38;1.27;;;;;;;;;;5021370;28;58381;-64
2023/04/21 04:01:57;;;;;;;1.30;1.20;;;;;;;;;;5023192;28;58238;-62
2023/04/21 04:04:22;;;;;;;1.20;1.10;;;;;;;;;;5024385;28;58662;-63
2023/04/21 04:06:47;;;;;;;1.88;1.77;;;;;;;;;;5024778;28;58755;-64
2023/04/21 04:09:12;;;;;;;1.73;1.63;;;;;;;;;;5024914;28;58402;-65
2023/04/21 04:11:37;;;;;;;1.35;1.25;;;;;;;;;;5022137;28;57910;-63
2023/04/21 04:14:02;;;;;;;0.83;0.83;;;;;;;;;;5022387;28;58349;-63
2023/04/21 04:16:27;;;;;;;1.45;1.35;;;;;;;;;;5023999;28;58657;-63
2023/04/21 04:18:53;;;;;;;1.53;1.43;;;;;;;;;;5025281;28;58362;-64
2023/04/21 04:21:18;;;;;;;1.50;1.40;;;;;;;;;;5026354;28;58370;-65
2023/04/21 04:23:44;;;;;;;0.90;0.90;;;;;;;;;;5026968;28;58476;-66
2023/04/21 04:26:10;;;;;;;1.88;1.77;;;;;;;;;;5025295;28;58661;-63
2023/04/21 04:28:35;;;;;;;1.98;1.30;;;;;;;;;;5026710;28;58428;-65
2023/04/21 04:31:01;;;;;;;1.20;1.10;;;;;;;;;;5024101;28;59031;-64
2023/04/21 04:33:26;;;;;;;1.35;1.25;;;;;;;;;;5024877;28;58458;-64
2023/04/21 04:35:53;;;;;;;1.35;1.25;;;;;;;;;;5023789;28;58075;-64
2023/04/21 04:38:18;;;;;;;1.50;1.40;;;;;;;;;;5026454;28;58689;-63
2023/04/21 04:40:44;;;;;;;1.73;1.20;;;;;;;;;;5025313;28;58281;-62
2023/04/21 04:43:09;;;;;;;1.65;1.30;;;;;;;;;;5025992;28;58541;-64
2023/04/21 04:45:35;;;;;;;1.20;1.10;;;;;;;;;;5026393;28;58635;-61
2023/04/21 04:48:00;;;;;;;1.67;1.58;;;;;;;;;;5022223;28;58510;-61
2023/04/21 04:50:25;;;;;;;2.75;1.50;;;;;;;;;;5026659;28;58776;-62
2023/04/21 04:52:51;;;;;;;1.95;1.75;;;;;;;;;;5024797;28;58759;-61
2023/04/21 04:55:16;;;;;;;1.60;1.50;;;;;;;;;;5025247;28;58411;-61
2023/04/21 04:57:41;;;;;;;5.67;2.17;;;;;;;;;;5026147;28;58444;-61
2023/04/21 05:00:10;;;;;;;9.73;2.85;;;;;;;;;;5025710;28;58311;-61
2023/04/21 05:02:35;;;;;;;3.65;2.08;;;;;;;;;;5023782;28;59037;-61
2023/04/21 05:05:00;;;;;;;6.35;2.70;;;;;;;;;;5024016;28;59387;-61
2023/04/21 05:07:26;;;;;;;4.75;2.90;;;;;;;;;;5026243;28;58774;-61
2023/04/21 05:09:51;;;;;;;4.53;2.23;;;;;;;;;;5026563;28;58475;-61
2023/04/21 05:12:16;;;;;;;4.43;1.90;;;;;;;;;;5025919;28;58360;-61
2023/04/21 05:14:41;;;;;;;5.47;1.95;;;;;;;;;;5029701;28;58446;-62
2023/04/21 05:17:06;;;;;;;2.88;2.13;;;;;;;;;;5028675;28;58804;-61
2023/04/21 05:19:34;;;;;;;4.13;1.90;;;;;;;;;;5030038;28;58240;-62
2023/04/21 05:22:02;;;;;;;4.67;2.60;;;;;;;;;;5030205;28;58884;-61
2023/04/21 05:24:27;;;;;;;6.07;2.05;;;;;;;;;;5028773;28;58574;-64
2023/04/21 05:26:52;;;;;;;5.10;2.15;;;;;;;;;;5028761;28;58402;-61
2023/04/21 05:29:17;;;;;;;2.92;2.20;;;;;;;;;;5029282;28;58450;-60
2023/04/21 05:31:42;;;;;;;3.22;2.00;;;;;;;;;;5026836;28;58775;-61
2023/04/21 05:34:08;;;;;;;2.67;2.07;;;;;;;;;;5030801;28;59170;-61
2023/04/21 05:36:33;;;;;;;3.47;2.00;;;;;;;;;;5028196;28;58761;-61
2023/04/21 05:38:58;;;;;;;3.30;2.58;;;;;;;;;;5029851;28;58979;-61
2023/04/21 05:41:23;;;;;;;2.50;1.57;;;;;;;;;;5029667;28;59102;-61
2023/04/21 05:43:48;;;;;;;4.20;1.77;;;;;;;;;;5028746;28;58526;-61
2023/04/21 05:46:13;;;;;;;2.27;1.47;;;;;;;;;;5029609;28;58842;-61
2023/04/21 05:48:39;;;;;;;1.93;1.83;;;;;;;;;;5028675;28;60251;-61
2023/04/21 05:51:08;;;;;;;4.60;2.58;;;;;;;;;;5028852;28;57888;-61
2023/04/21 05:53:33;;;;;;;5.05;1.95;;;;;;;;;;5029453;28;58731;-61
2023/04/21 05:55:58;;;;;;;4.75;2.00;;;;;;;;;;5027392;28;58442;-61
2023/04/21 05:58:24;;;;;;;2.53;1.77;;;;;;;;;;5029332;28;58449;-62
2023/04/21 06:00:49;;;;;;;2.90;1.83;;;;;;;;;;5028989;28;58404;-61
2023/04/21 06:03:14;;;;;;;3.40;1.70;;;;;;;;;;5027704;28;58574;-61
2023/04/21 06:05:39;;;;;;;2.60;1.80;;;;;;;;;;5027587;28;58387;-61
2023/04/21 06:08:05;;;;;;;1.67;1.50;;;;;;;;;;5028572;28;59037;-61
2023/04/21 06:10:30;;;;;;;3.00;1.57;;;;;;;;;;5026226;28;58578;-61
2023/04/21 06:12:55;;;;;;;5.60;2.10;;;;;;;;;;5028808;28;58316;-61
2023/04/21 06:15:20;;;;;;;3.03;2.38;;;;;;;;;;5027746;28;58213;-61
2023/04/21 06:17:45;;;;;;;2.15;1.95;;;;;;;;;;5028133;28;58467;-62
2023/04/21 06:20:10;;;;;;;3.08;1.65;;;;;;;;;;5027848;28;58848;-61
2023/04/21 06:22:36;;;;;;;2.33;1.67;;;;;;;;;;5026744;28;58436;-61
2023/04/21 06:25:01;;;;;;;1.70;1.60;;;;;;;;;;5028061;28;58600;-61
2023/04/21 06:27:26;;;;;;;2.40;1.70;;;;;;;;;;5029086;28;59022;-61
2023/04/21 06:29:55;;;;;;;2.90;1.75;;;;;;;;;;5024602;28;58174;-61
2023/04/21 06:32:20;;;;;;;2.70;2.03;;;;;;;;;;5027094;28;58345;-61
2023/04/21 06:34:45;;;;;;;2.33;1.70;;;;;;;;;;5027683;28;58831;-61
2023/04/21 06:37:10;;;;;;;3.35;1.48;;;;;;;;;;5028038;28;58387;-61
2023/04/21 06:39:35;;;;;;;2.75;2.00;;;;;;;;;;5028182;28;59129;-61
2023/04/21 06:42:01;;;;;;;2.47;1.58;;;;;;;;;;5027219;28;58698;-61
2023/04/21 06:44:26;;;;;;;2.35;1.50;;;;;;;;;;5027299;28;58374;-61
2023/04/21 06:46:51;;;;;;;2.08;1.75;;;;;;;;;;5027474;28;58397;-60
2023/04/21 06:49:16;;;;;;;1.43;1.30;;;;;;;;;;5026728;28;58280;-60
2023/04/21 06:51:41;;;;;;;2.07;1.83;;;;;;;;;;5028068;28;58583;-61
2023/04/21 06:54:06;;;;;;;3.23;1.63;;;;;;;;;;5028165;28;58383;-61
2023/04/21 06:56:32;;;;;;;2.38;1.85;;;;;;;;;;5027102;28;58460;-61
2023/04/21 06:58:57;;;;;;;2.60;1.20;;;;;;;;;;5027976;28;58253;-61
2023/04/21 07:01:25;;;;;;;2.03;1.90;;;;;;;;;;5026376;28;58516;-61
2023/04/21 07:03:50;;;;;;;;;;;;;;;;;;4989522;28;1050484;-61
2023/04/21 07:06:15;;;;;;;2.72;2.17;;;;;;;;;;5028468;28;58476;-62
2023/04/21 07:08:41;;;;;;;4.10;1.50;;;;;;;;;;5026687;28;58612;-59
2023/04/21 07:11:06;;;;;;;3.37;1.63;;;;;;;;;;5027836;28;58095;-61
2023/04/21 07:13:31;;;;;;;2.63;1.92;;;;;;;;;;5028530;28;58825;-61
2023/04/21 07:15:57;;;;;;;2.53;1.90;;;;;;;;;;5027751;28;58714;-61
2023/04/21 07:18:22;;;;;;;1.63;1.50;;;;;;;;;;5028350;28;58343;-61
2023/04/21 07:20:47;;;;;;;2.22;1.80;;;;;;;;;;5027851;28;59240;-61
2023/04/21 07:23:12;;;;;;;2.00;1.55;;;;;;;;;;5028292;28;58433;-60
2023/04/21 07:25:37;;;;;;;2.23;1.70;;;;;;;;;;5025823;28;59221;-61
2023/04/21 07:28:03;;;;;;;2.07;1.50;;;;;;;;;;5026982;28;59612;-61
2023/04/21 07:30:28;;;;;;;2.17;1.42;;;;;;;;;;5028319;28;58388;-61
2023/04/21 07:32:54;;;;;;;3.20;1.20;;;;;;;;;;5027717;28;58359;-61
2023/04/21 07:35:19;;;;;;;1.85;1.50;;;;;;;;;;5026701;28;58586;-61
2023/04/21 07:37:45;;;;;;;1.40;1.30;;;;;;;;;;5026813;28;58359;-61
2023/04/21 07:40:10;;;;;;;1.43;1.33;;;;;;;;;;5026865;28;58752;-62
2023/04/21 07:42:35;;;;;;;1.92;1.65;;;;;;;;;;5027411;28;59026;-61
2023/04/21 07:45:01;;;;;;;3.23;1.43;;;;;;;;;;5027840;28;58436;-60
2023/04/21 07:47:26;;;;;;;2.22;1.80;;;;;;;;;;5026767;28;58700;-61
2023/04/21 07:49:51;;;;;;;1.38;1.30;;;;;;;;;;5025006;28;58793;-61
2023/04/21 07:52:17;;;;;;;1.75;1.55;;;;;;;;;;5026672;28;58856;-62
2023/04/21 07:54:42;;;;;;;2.20;1.33;;;;;;;;;;5027351;28;58408;-61
2023/04/21 07:57:07;;;;;;;2.30;1.60;;;;;;;;;;5027740;28;58293;-62
2023/04/21 07:59:32;;;;;;;1.90;1.40;;;;;;;;;;5025225;28;59242;-62
2023/04/21 08:01:58;;;;;;;2.13;1.70;;;;;;;;;;5025847;28;58555;-62
2023/04/21 08:04:23;;;;;;;1.90;1.43;;;;;;;;;;5027989;28;58539;-61
2023/04/21 08:06:48;;;;;;;3.40;2.08;;;;;;;;;;5025924;28;58695;-62
2023/04/21 08:09:13;;;;;;;2.58;1.60;;;;;;;;;;5027361;28;58621;-62
2023/04/21 08:11:38;;;;;;;1.70;1.53;;;;;;;;;;5027521;28;58570;-61
2023/04/21 08:14:03;;;;;;;1.27;1.17;;;;;;;;;;5026493;28;58413;-61
2023/04/21 08:16:28;;;;;;;1.60;1.47;;;;;;;;;;5027604;28;58795;-62
2023/04/21 08:18:53;;;;;;;1.77;1.40;;;;;;;;;;5027511;28;59334;-62
2023/04/21 08:21:19;;;;;;;3.05;1.23;;;;;;;;;;5026024;28;58472;-61
2023/04/21 08:23:44;;;;;;;3.13;1.47;;;;;;;;;;5027803;28;59278;-61
2023/04/21 08:26:09;;;;;;;2.03;1.48;;;;;;;;;;5027267;28;58729;-61
2023/04/21 08:28:34;;;;;;;2.33;1.88;;;;;;;;;;5026833;28;58330;-62
2023/04/21 08:31:00;;;;;;;1.60;1.43;;;;;;;;;;5026811;28;58921;-61
2023/04/21 08:33:26;;;;;;;3.40;2.35;;;;;;;;;;5024913;28;58808;-62
2023/04/21 08:35:51;;;;;;;1.77;1.63;;;;;;;;;;5026352;28;58144;-61
2023/04/21 08:38:16;;;;;;;1.52;1.42;;;;;;;;;;5027483;28;58988;-61
2023/04/21 08:40:41;;;;;;;1.35;1.25;;;;;;;;;;5026431;28;58747;-61
2023/04/21 08:43:07;;;;;;;1.43;1.33;;;;;;;;;;5026511;28;58187;-61
2023/04/21 08:45:33;;;;;;;1.98;1.75;;;;;;;;;;5025881;28;58954;-62
2023/04/21 08:47:59;;;;;;;2.42;1.48;;;;;;;;;;5026798;28;58774;-61
2023/04/21 08:50:26;;;;;;;1.50;1.30;;;;;;;;;;5024961;28;59264;-61
2023/04/21 08:52:52;;;;;;;2.17;1.55;;;;;;;;;;5026025;28;58980;-62
2023/04/21 08:55:17;;;;;;;1.88;1.17;;;;;;;;;;5026229;28;58521;-62
2023/04/21 08:57:42;;;;;;;2.30;1.40;;;;;;;;;;5027193;28;59226;-60
2023/04/21 09:00:08;;;;;;;2.43;1.70;;;;;;;;;;5025520;28;58893;-62
2023/04/21 09:02:51;;;;;;;1.55;1.23;;;;;;;;;;5026011;28;58727;-62
2023/04/21 09:05:20;;;;;;;1.67;1.58;;;;;;;;;;5025406;28;58738;-62
2023/04/21 09:07:45;;;;;;;1.70;1.60;;;;;;;;;;5024223;28;59786;-62
2023/04/21 09:10:11;;;;;;;1.87;1.60;;;;;;;;;;5025911;28;58646;-61
2023/04/21 09:12:37;;;;;;;2.23;1.93;;;;;;;;;;5026713;28;58930;-62
2023/04/21 09:15:08;;;;;;;1.33;1.23;;;;;;;;;;5026070;28;58684;-60
2023/04/21 09:17:35;;;;;;;1.33;1.17;;;;;;;;;;5026731;28;58758;-62
2023/04/21 09:20:14;;;;;;;1.70;1.60;;;;;;;;;;5025245;28;58658;-61
2023/04/21 09:22:39;;;;;;;2.45;1.38;;;;;;;;;;5026248;28;58753;-61
2023/04/21 09:25:05;;;;;;;1.67;1.30;;;;;;;;;;5026096;28;58978;-62
2023/04/21 09:27:30;;;;;;;1.57;1.30;;;;;;;;;;5026275;28;58664;-62
2023/04/21 09:30:01;;;;;;;1.53;1.43;;;;;;;;;;5024785;28;58816;-62
2023/04/21 09:32:26;;;;;;;1.42;1.30;;;;;;;;;;5024229;28;58422;-61
2023/04/21 09:34:51;;;;;;;1.30;1.20;;;;;;;;;;5026212;28;58505;-62
2023/04/21 09:37:16;;;;;;;1.42;1.15;;;;;;;;;;5026045;28;58523;-60
2023/04/21 09:39:44;;;;;;;1.57;1.30;;;;;;;;;;5025855;28;58477;-62
2023/04/21 09:42:09;;;;;;;1.90;1.30;;;;;;;;;;5026505;28;58301;-62
2023/04/21 09:44:35;;;;;;;2.25;1.38;;;;;;;;;;5026119;28;59205;-62
2023/04/21 09:47:01;;;;;;;2.28;1.98;;;;;;;;;;5024758;28;58637;-61
2023/04/21 09:49:28;;;;;;;2.58;1.98;;;;;;;;;;5025942;28;58668;-61
2023/04/21 09:51:54;;;;;;;1.10;1.10;;;;;;;;;;5026261;28;58665;-62
2023/04/21 09:54:19;;;;;;;1.92;1.75;;;;;;;;;;5026483;28;58596;-62
2023/04/21 09:56:47;;;;;;;1.58;1.48;;;;;;;;;;5026421;28;59157;-62
2023/04/21 09:59:16;;;;;;;2.00;1.48;;;;;;;;;;5025234;28;58424;-62
2023/04/21 10:01:42;;;;;;;1.55;1.45;;;;;;;;;;5029261;28;58517;-62
2023/04/21 10:04:07;;;;;;;2.08;1.35;;;;;;;;;;5029365;28;59009;-62
2023/04/21 10:06:32;;;;;;;2.15;1.52;;;;;;;;;;5029547;28;58741;-61
2023/04/21 10:08:58;;;;;;;1.70;1.60;;;;;;;;;;5029007;28;59353;-62
2023/04/21 10:11:24;;;;;;;1.80;1.60;;;;;;;;;;5029777;28;58362;-62
2023/04/21 10:13:50;;;;;;;1.65;1.55;;;;;;;;;;5029703;28;58615;-61
2023/04/21 10:16:16;;;;;;;1.83;1.47;;;;;;;;;;5029100;28;58194;-62
2023/04/21 10:18:42;;;;;;;1.75;1.63;;;;;;;;;;5029058;28;58194;-62
2023/04/21 10:21:08;;;;;;;1.85;1.20;;;;;;;;;;5028802;28;58399;-62
2023/04/21 10:23:43;;;;;;;1.30;1.20;;;;;;;;;;5029472;28;59225;-62
2023/04/21 10:26:11;;;;;;;1.65;1.42;;;;;;;;;;5027775;28;58880;-61
2023/04/21 10:28:36;;;;;;;;;;;;;;;;;;5029257;28;58862;-61
2023/04/21 10:31:34;;;;;;;1.48;1.30;;;;;;;;;;5029530;28;58675;-62
2023/04/21 10:34:06;;;;;;;1.77;1.67;;;;;;;;;;5009540;28;58829;-62
2023/04/21 10:36:33;;;;;;;1.70;1.60;;;;;;;;;;5030308;28;58458;-62
2023/04/21 10:39:00;;;;;;;1.70;1.42;;;;;;;;;;5027885;28;58675;-62
2023/04/21 10:41:26;;;;;;;1.17;1.13;;;;;;;;;;5029209;28;58207;-62
2023/04/21 10:43:52;;;;;;;1.75;1.65;;;;;;;;;;5028573;28;60028;-62
2023/04/21 10:46:36;;;;;;;2.80;1.67;;;;;;;;;;5027786;28;58012;-62
2023/04/21 10:49:08;;;;;;;1.45;1.35;;;;;;;;;;5029093;28;58697;-61
2023/04/21 10:51:53;;;;;;;1.20;1.20;;;;;;;;;;5029293;28;59182;-62
2023/04/21 10:54:20;;;;;;;1.30;1.20;;;;;;;;;;5027168;28;58803;-60
2023/04/21 10:56:46;;;;;;;1.33;1.23;;;;;;;;;;5028946;28;57921;-62
2023/04/21 10:59:11;;;;;;;1.55;1.45;;;;;;;;;;5025591;28;58680;-62
2023/04/21 11:01:38;;;;;;;2.17;1.77;;;;;;;;;;5028042;28;58676;-62
2023/04/21 11:04:04;;;;;;;1.55;1.30;;;;;;;;;;5028211;28;59228;-62
2023/04/21 11:06:29;;;;;;;2.03;1.83;;;;;;;;;;5028540;28;58938;-61
2023/04/21 11:08:55;;;;;;;1.48;1.35;;;;;;;;;;5028413;28;58395;-62
2023/04/21 11:11:23;;;;;;;2.58;1.83;;;;;;;;;;5025274;28;59483;-62
2023/04/21 11:13:48;;;;;;;1.10;1.10;;;;;;;;;;5026748;28;58532;-62
2023/04/21 11:16:13;;;;;;;1.40;1.30;;;;;;;;;;5028825;28;58806;-62
2023/04/21 11:18:42;;;;;;;1.05;0.95;;;;;;;;;;5029672;28;58213;-62
2023/04/21 11:21:16;;;;;;;1.33;1.20;;;;;;;;;;5027144;28;58785;-62
2023/04/21 11:23:46;;;;;;;1.70;1.60;;;;;;;;;;5027989;28;59207;-61
2023/04/21 11:26:12;;;;;;;0.75;0.75;;;;;;;;;;5027084;28;58546;-62
2023/04/21 11:28:38;;;;;;;1.27;1.10;;;;;;;;;;5027477;28;58460;-62
2023/04/21 11:31:04;;;;;;;1.27;1.17;;;;;;;;;;5027989;28;60696;-62
2023/04/21 11:33:29;;;;;;;1.43;1.33;;;;;;;;;;5027758;28;58712;-60
2023/04/21 11:35:57;;;;;;;1.30;1.20;;;;;;;;;;5028118;28;58414;-62
2023/04/21 11:38:23;;;;;;;1.70;1.33;;;;;;;;;;5027968;28;58372;-62
2023/04/21 11:40:48;;;;;;;1.50;1.38;;;;;;;;;;5028056;28;58540;-62
2023/04/21 11:43:13;;;;;;;1.30;1.20;;;;;;;;;;5025003;28;58830;-61
2023/04/21 11:45:39;;;;;;;1.57;1.47;;;;;;;;;;5028348;28;58828;-62
2023/04/21 11:48:14;;;;;;;1.15;1.08;;;;;;;;;;5027585;28;58511;-62
2023/04/21 11:50:39;;;;;;;1.38;1.27;;;;;;;;;;5025809;28;58650;-61
2023/04/21 11:53:05;;;;;;;1.30;1.20;;;;;;;;;;5026800;28;58653;-61
2023/04/21 11:55:30;;;;;;;1.20;1.10;;;;;;;;;;5027801;28;58376;-61
2023/04/21 11:57:56;;;;;;;1.47;1.30;;;;;;;;;;5028695;28;58027;-62
2023/04/21 12:00:21;;;;;;;1.33;1.23;;;;;;;;;;5026925;28;58402;-61
2023/04/21 12:02:52;;;;;;;1.80;1.67;;;;;;;;;;5028176;28;58633;-61
2023/04/21 12:05:18;;;;;;;1.08;1.00;;;;;;;;;;5023552;28;59889;-61
2023/04/21 12:07:43;;;;;;;1.50;1.40;;;;;;;;;;5026147;28;58439;-62
2023/04/21 12:10:19;;;;;;;2.08;1.83;;;;;;;;;;5026096;28;58995;-62
2023/04/21 12:12:44;;;;;;;1.48;1.13;;;;;;;;;;5027145;28;58729;-61
2023/04/21 12:15:10;;;;;;;2.67;1.27;;;;;;;;;;5027567;28;58462;-62
2023/04/21 12:17:37;;;;;;;4.38;1.38;;;;;;;;;;5023412;28;58701;-61
2023/04/21 12:20:06;;;;;;;8.15;2.47;;;;;;;;;;5026113;28;58376;-62
2023/04/21 12:22:31;;;;;;;1.70;1.60;;;;;;;;;;5027032;28;58359;-62
2023/04/21 12:24:56;;;;;;;1.88;1.77;;;;;;;;;;5027527;28;58474;-62
2023/04/21 12:27:22;;;;;;;8.80;2.55;;;;;;;;;;5027790;28;58563;-61
2023/04/21 12:29:47;;;;;;;2.75;1.95;;;;;;;;;;5026335;28;59029;-62
2023/04/21 12:32:12;;;;;;;3.13;1.27;;;;;;;;;;5026609;28;58761;-62
2023/04/21 12:34:37;;;;;;;3.83;1.70;;;;;;;;;;5026883;28;58468;-63
2023/04/21 12:37:02;;;;;;;5.63;1.98;;;;;;;;;;5027018;28;58558;-62
2023/04/21 12:39:28;;;;;;;3.73;1.67;;;;;;;;;;5021172;28;58690;-62
2023/04/21 12:41:54;;;;;;;2.53;1.75;;;;;;;;;;5025706;28;58377;-62
2023/04/21 12:44:19;;;;;;;2.22;1.77;;;;;;;;;;5027228;28;58467;-61
2023/04/21 12:46:45;;;;;;;3.30;1.63;;;;;;;;;;5026978;28;58801;-61
2023/04/21 12:49:10;;;;;;;2.17;1.85;;;;;;;;;;5025482;28;58972;-62
2023/04/21 12:51:35;;;;;;;2.40;1.90;;;;;;;;;;5025684;28;58565;-62
2023/04/21 12:54:01;;;;;;;3.83;1.50;;;;;;;;;;5027298;28;58505;-61
2023/04/21 12:56:26;;;;;;;1.80;1.50;;;;;;;;;;5027032;28;58604;-62
2023/04/21 12:58:51;;;;;;;2.57;1.53;;;;;;;;;;5026897;28;58621;-62
2023/04/21 13:01:17;;;;;;;2.72;1.70;;;;;;;;;;5024543;28;58439;-62
2023/04/21 13:03:42;;;;;;;4.80;1.55;;;;;;;;;;5025340;28;59011;-61
2023/04/21 13:06:07;;;;;;;1.63;1.52;;;;;;;;;;5024843;28;58665;-62
2023/04/21 13:08:32;;;;;;;1.58;1.08;;;;;;;;;;5025190;28;58376;-61
2023/04/21 13:10:58;;;;;;;1.90;1.70;;;;;;;;;;5025482;28;58670;-62
2023/04/21 13:13:23;;;;;;;0.93;0.93;;;;;;;;;;5025509;28;58332;-61
2023/04/21 13:15:48;;;;;;;1.50;1.40;;;;;;;;;;5027912;28;59263;-62
2023/04/21 13:18:13;;;;;;;2.33;1.30;;;;;;;;;;5025006;28;59030;-61
2023/04/21 13:20:38;;;;;;;3.43;1.27;;;;;;;;;;5025365;28;58672;-61
2023/04/21 13:23:03;;;;;;;1.55;1.10;;;;;;;;;;5026933;28;58855;-62
2023/04/21 13:25:28;;;;;;;5.10;2.03;;;;;;;;;;5026532;28;58494;-62
2023/04/21 13:27:54;;;;;;;1.87;1.53;;;;;;;;;;5028659;28;58645;-62
2023/04/21 13:30:19;;;;;;;1.70;1.60;;;;;;;;;;5024816;28;58736;-60
2023/04/21 13:32:44;;;;;;;2.92;1.58;;;;;;;;;;5027600;28;58856;-60
2023/04/21 13:35:09;;;;;;;3.80;1.47;;;;;;;;;;5029116;28;58809;-61
2023/04/21 13:37:38;;;;;;;2.20;1.57;;;;;;;;;;5029651;28;58536;-62
2023/04/21 13:40:04;;;;;;;2.90;1.77;;;;;;;;;;5029052;28;58480;-61
2023/04/21 13:42:30;;;;;;;4.38;1.38;;;;;;;;;;5031903;28;58769;-62
2023/04/21 13:44:55;;;;;;;3.03;1.57;;;;;;;;;;5029250;28;58332;-62
2023/04/21 13:47:20;;;;;;;4.33;1.40;;;;;;;;;;5030162;28;58336;-61
2023/04/21 13:49:45;;;;;;;2.73;2.20;;;;;;;;;;5028521;28;59164;-62
2023/04/21 13:52:11;;;;;;;1.50;1.40;;;;;;;;;;5031212;28;59197;-62
2023/04/21 13:54:36;;;;;;;2.90;1.60;;;;;;;;;;5030500;28;59800;-63
2023/04/21 13:57:01;;;;;;;4.83;1.73;;;;;;;;;;5027763;28;58587;-62
2023/04/21 13:59:26;;;;;;;4.33;1.90;;;;;;;;;;5029537;28;58301;-62
2023/04/21 14:01:52;;;;;;;3.20;1.27;;;;;;;;;;5027911;28;58400;-62
2023/04/21 14:04:19;;;;;;;6.60;1.77;;;;;;;;;;5028671;28;58607;-63
2023/04/21 14:06:44;;;;;;;3.03;1.70;;;;;;;;;;5029768;28;58404;-63
2023/04/21 14:09:09;;;;;;;6.80;2.47;;;;;;;;;;5029835;28;58344;-63
2023/04/21 14:11:35;;;;;;;2.50;1.58;;;;;;;;;;5029010;28;58461;-64
2023/04/21 14:14:00;;;;;;;4.43;1.37;;;;;;;;;;5029201;28;58155;-64
2023/04/21 14:16:25;;;;;;;7.47;1.40;;;;;;;;;;5026942;28;58726;-63
2023/04/21 14:18:51;;;;;;;3.43;1.30;;;;;;;;;;5029120;28;58446;-63
2023/04/21 14:21:16;;;;;;;2.63;1.20;;;;;;;;;;5027928;28;59921;-63
2023/04/21 14:23:41;;;;;;;4.35;1.52;;;;;;;;;;5029005;28;58368;-62
2023/04/21 14:26:06;;;;;;;3.55;1.80;;;;;;;;;;5028734;28;58413;-60
2023/04/21 14:28:31;;;;;;;6.72;1.67;;;;;;;;;;5029089;28;57902;-63
2023/04/21 14:30:56;;;;;;;7.40;1.80;;;;;;;;;;5029530;28;58166;-63
2023/04/21 14:33:21;;;;;;;6.00;1.70;;;;;;;;;;5029204;28;58476;-62
2023/04/21 14:35:47;;;;;;;4.13;1.60;;;;;;;;;;5026668;28;59036;-64